Time;durP1;ratioP1;P1;durP2;ratioP2;P2;SDS_P1;SDS_P2;PMS_P1;PMS_P2;Temp;Humidity;BMP_temperature;BMP_pressure;BME280_temperature;BME280_humidity;BME280_pressure;Samples;Min_cycle;Max_cycle;Signal;HPM_P1;HPM_P2
2021/06/18 15:37:33;;;;;;;9.38;5.00;;;;;;;;;;5080122;27;20683;-45
2021/06/18 15:40:02;;;;;;;6.25;4.18;;;;;;;;;;5066907;28;20055;-45
2021/06/18 15:42:28;;;;;;;8.07;4.10;;;;;;;;;;5071495;28;20028;-47
2021/06/18 15:44:57;;;;;;;6.60;4.28;;;;;;;;;;5074335;28;20035;-48
2021/06/18 15:47:23;;;;;;;8.93;4.45;;;;;;;;;;5054556;28;20502;-45
2021/06/18 15:49:48;;;;;;;12.80;4.85;;;;;;;;;;5065286;28;20024;-43
2021/06/18 15:52:14;;;;;;;10.65;4.63;;;;;;;;;;5078945;28;20077;-46
2021/06/18 15:54:40;;;;;;;7.20;4.75;;;;;;;;;;5060189;28;20518;-49
2021/06/18 15:57:05;;;;;;;9.35;5.63;;;;;;;;;;5076135;28;20102;-47
2021/06/18 15:59:31;;;;;;;9.93;4.53;;;;;;;;;;5065140;28;20606;-45
2021/06/18 16:01:56;;;;;;;9.98;4.97;;;;;;;;;;5073866;28;20103;-47
2021/06/18 16:04:22;;;;;;;9.10;4.75;;;;;;;;;;5066174;28;20028;-45
2021/06/18 16:06:47;;;;;;;10.13;5.05;;;;;;;;;;5057811;28;20036;-46
2021/06/18 16:09:12;;;;;;;6.00;4.63;;;;;;;;;;5057771;28;20519;-46
2021/06/18 16:11:38;;;;;;;8.77;5.38;;;;;;;;;;5058495;28;20119;-43
2021/06/18 16:14:03;;;;;;;8.18;4.80;;;;;;;;;;5071585;28;20818;-44
2021/06/18 16:16:29;;;;;;;9.93;4.75;;;;;;;;;;5056323;28;20025;-43
2021/06/18 16:18:54;;;;;;;7.28;4.88;;;;;;;;;;5058591;28;20040;-48
2021/06/18 16:21:20;;;;;;;6.95;4.70;;;;;;;;;;5077541;28;20082;-44
2021/06/18 16:23:45;;;;;;;7.65;4.70;;;;;;;;;;5079081;28;20020;-44
2021/06/18 16:26:11;;;;;;;7.93;4.50;;;;;;;;;;5065108;28;20055;-45
2021/06/18 16:28:36;;;;;;;8.75;4.15;;;;;;;;;;5059045;28;20086;-46
2021/06/18 16:31:02;;;;;;;7.10;4.75;;;;;;;;;;5063098;28;20046;-45
2021/06/18 16:33:27;;;;;;;7.80;4.38;;;;;;;;;;5068072;28;20025;-45
2021/06/18 16:35:53;;;;;;;7.28;4.47;;;;;;;;;;5071521;28;20665;-46
2021/06/18 16:38:18;;;;;;;7.28;4.35;;;;;;;;;;5058713;28;20063;-47
2021/06/18 16:40:44;;;;;;;7.90;4.53;;;;;;;;;;5064670;28;20035;-45
2021/06/18 16:43:10;;;;;;;6.20;4.30;;;;;;;;;;5058492;28;20541;-48
2021/06/18 16:45:35;;;;;;;6.10;4.65;;;;;;;;;;5057825;28;20029;-49
2021/06/18 16:48:00;;;;;;;7.20;4.85;;;;;;;;;;5049565;28;20527;-47
2021/06/18 16:50:26;;;;;;;6.38;4.53;;;;;;;;;;5049540;28;20578;-44
2021/06/18 16:52:52;;;;;;;6.15;4.32;;;;;;;;;;5066149;28;20039;-43
2021/06/18 16:55:17;;;;;;;7.50;4.20;;;;;;;;;;5062372;28;20024;-49
2021/06/18 16:57:42;;;;;;;8.38;5.03;;;;;;;;;;5044834;28;20518;-46
2021/06/18 17:00:09;;;;;;;7.07;4.50;;;;;;;;;;5047183;28;20029;-48
2021/06/18 19:32:07;;;;;;;9.30;6.30;;;;;;;;;;5097141;27;20388;-41
2021/06/18 19:34:33;;;;;;;9.05;5.80;;;;;;;;;;5097316;28;20725;-42
2021/06/18 19:36:59;;;;;;;7.18;5.15;;;;;;;;;;5094191;28;20024;-71
2021/06/18 19:39:25;;;;;;;9.05;6.10;;;;;;;;;;5060148;28;20035;-71
2021/06/18 19:41:51;;;;;;;13.05;5.68;;;;;;;;;;5076902;28;20486;-75
2021/06/18 19:44:17;;;;;;;12.45;6.00;;;;;;;;;;5059913;28;20494;-72
2021/06/18 19:46:42;;;;;;;8.93;5.97;;;;;;;;;;5043415;28;20028;-69
2021/06/18 19:49:08;;;;;;;8.93;6.10;;;;;;;;;;5075328;28;20029;-70
2021/06/18 19:51:33;;;;;;;10.65;5.78;;;;;;;;;;5043048;28;20063;-71
2021/06/18 19:53:59;;;;;;;12.40;6.10;;;;;;;;;;5043270;28;20032;-72
2021/06/18 19:56:24;;;;;;;8.85;5.32;;;;;;;;;;5077289;28;20077;-70
2021/06/18 19:58:50;;;;;;;8.32;5.80;;;;;;;;;;5077761;28;20035;-70
2021/06/18 20:01:15;;;;;;;10.05;6.15;;;;;;;;;;5075902;28;20544;-71
2021/06/18 20:03:41;;;;;;;7.75;5.35;;;;;;;;;;5077384;28;20036;-71
2021/06/18 20:06:06;;;;;;;9.05;5.55;;;;;;;;;;5060212;28;20044;-71
2021/06/18 20:08:32;;;;;;;10.07;5.80;;;;;;;;;;5079154;28;20030;-71
2021/06/18 20:10:57;;;;;;;8.85;5.40;;;;;;;;;;5061190;28;20028;-73
2021/06/18 20:13:22;;;;;;;11.05;5.80;;;;;;;;;;5079158;28;20414;-72
2021/06/18 20:15:48;;;;;;;8.82;5.80;;;;;;;;;;5076798;28;20054;-71
2021/06/18 20:18:13;;;;;;;10.65;5.93;;;;;;;;;;5078111;28;20594;-72
2021/06/18 20:20:39;;;;;;;10.57;5.80;;;;;;;;;;5060523;28;20038;-71
2021/06/18 20:23:05;;;;;;;9.70;5.53;;;;;;;;;;5059998;28;20076;-72
2021/06/18 20:25:30;;;;;;;11.02;5.35;;;;;;;;;;5042915;28;20016;-71
2021/06/18 20:27:56;;;;;;;9.85;5.38;;;;;;;;;;5061793;28;20028;-73
2021/06/18 20:30:23;;;;;;;8.90;5.78;;;;;;;;;;5078997;28;20059;-72
2021/06/18 20:32:48;;;;;;;11.43;5.13;;;;;;;;;;5077732;28;20123;-72
2021/06/18 20:35:14;;;;;;;10.65;5.88;;;;;;;;;;5075845;28;20446;-72
2021/06/18 20:37:45;;;;;;;6.95;5.00;;;;;;;;;;5059703;28;20504;-72
2021/06/18 20:40:29;;;;;;;8.37;5.63;;;;;;;;;;5059671;28;20653;-72
2021/06/18 20:42:55;;;;;;;11.68;5.55;;;;;;;;;;5034218;28;20031;-72
2021/06/18 20:45:20;;;;;;;8.00;5.40;;;;;;;;;;5043101;28;20272;-72
2021/06/18 20:47:46;;;;;;;8.85;5.40;;;;;;;;;;5062045;28;20034;-71
2021/06/18 20:50:12;;;;;;;8.40;5.57;;;;;;;;;;5043433;28;20025;-72
2021/06/18 20:52:37;;;;;;;6.88;5.20;;;;;;;;;;5044549;28;20028;-71
2021/06/18 20:55:03;;;;;;;9.55;5.43;;;;;;;;;;5061148;28;20464;-71
2021/06/18 20:57:29;;;;;;;9.80;4.88;;;;;;;;;;5044881;28;20059;-71
2021/06/18 20:59:54;;;;;;;9.55;5.75;;;;;;;;;;5061162;28;20112;-72
2021/06/18 21:02:20;;;;;;;8.07;5.32;;;;;;;;;;5045031;28;20036;-72
2021/06/18 21:04:46;;;;;;;7.43;5.13;;;;;;;;;;5044005;28;20134;-72
2021/06/18 21:07:11;;;;;;;9.50;5.30;;;;;;;;;;5044532;28;20035;-71
2021/06/18 21:09:37;;;;;;;9.93;5.80;;;;;;;;;;5044254;28;20552;-72
2021/06/18 21:12:03;;;;;;;7.93;5.38;;;;;;;;;;5058742;28;20639;-71
2021/06/18 21:14:28;;;;;;;8.00;5.45;;;;;;;;;;5043971;28;20032;-72
2021/06/18 21:16:53;;;;;;;7.63;5.20;;;;;;;;;;5041704;28;20123;-71
2021/06/18 21:19:19;;;;;;;7.32;5.40;;;;;;;;;;5061649;28;20115;-71
2021/06/18 21:21:45;;;;;;;8.63;5.53;;;;;;;;;;5044278;28;20036;-72
2021/06/18 21:24:10;;;;;;;12.25;5.65;;;;;;;;;;5059031;28;20032;-72
2021/06/18 21:26:36;;;;;;;8.77;5.25;;;;;;;;;;5043367;28;20055;-72
2021/06/18 21:29:01;;;;;;;9.90;5.50;;;;;;;;;;5060552;28;20100;-72
2021/06/18 21:31:27;;;;;;;9.07;5.28;;;;;;;;;;5041784;28;20017;-72
2021/06/18 21:33:52;;;;;;;8.77;5.35;;;;;;;;;;5039996;28;20033;-70
2021/06/18 21:36:18;;;;;;;7.40;4.97;;;;;;;;;;5041289;28;20671;-71
2021/06/18 21:38:43;;;;;;;8.15;5.18;;;;;;;;;;5060714;28;20081;-70
2021/06/18 21:41:09;;;;;;;7.70;4.93;;;;;;;;;;5059265;28;20024;-72
2021/06/18 21:43:34;;;;;;;8.32;4.40;;;;;;;;;;5026592;28;20024;-71
2021/06/18 21:46:03;;;;;;;7.45;4.30;;;;;;;;;;5043760;28;20664;-71
2021/06/18 21:48:30;;;;;;;9.15;4.28;;;;;;;;;;5043388;28;20025;-72
2021/06/18 21:50:55;;;;;;;8.48;4.40;;;;;;;;;;5043388;28;20025;-71
2021/06/18 21:53:21;;;;;;;6.28;3.95;;;;;;;;;;5060243;28;20036;-72
2021/06/18 21:55:46;;;;;;;11.43;4.30;;;;;;;;;;5059943;28;20498;-72
2021/06/18 21:58:12;;;;;;;6.20;3.63;;;;;;;;;;5064743;28;20111;-72
2021/06/18 22:00:37;;;;;;;7.65;3.55;;;;;;;;;;5057909;28;20068;-72
2021/06/18 22:03:03;;;;;;;6.47;3.78;;;;;;;;;;5041769;28;20457;-71
2021/06/18 22:05:28;;;;;;;7.70;3.55;;;;;;;;;;5006800;28;20059;-72
2021/06/18 22:07:54;;;;;;;8.10;3.40;;;;;;;;;;5024893;28;20094;-70
2021/06/18 22:10:19;;;;;;;7.53;3.70;;;;;;;;;;5042897;28;20064;-71
2021/06/18 22:12:46;;;;;;;8.27;3.72;;;;;;;;;;5042251;28;20142;-71
2021/06/18 22:15:12;;;;;;;9.57;3.10;;;;;;;;;;5024019;28;20033;-69
2021/06/18 22:17:39;;;;;;;10.95;4.43;;;;;;;;;;5041295;28;20031;-73
2021/06/18 22:20:07;;;;;;;11.07;4.78;;;;;;;;;;5041963;28;20590;-74
2021/06/18 22:22:33;;;;;;;9.25;3.85;;;;;;;;;;5031604;28;20030;-73
2021/06/18 22:24:58;;;;;;;9.75;3.80;;;;;;;;;;5023912;28;20408;-71
2021/06/18 22:27:24;;;;;;;11.75;4.47;;;;;;;;;;5045266;28;20033;-73
2021/06/18 22:29:49;;;;;;;8.77;4.22;;;;;;;;;;5042701;28;20033;-73
2021/06/18 22:32:15;;;;;;;10.00;4.05;;;;;;;;;;5044511;28;20831;-72
2021/06/18 22:34:41;;;;;;;9.38;3.90;;;;;;;;;;5042670;28;20060;-71
2021/06/18 22:37:09;;;;;;;11.13;4.28;;;;;;;;;;5045503;28;20048;-71
2021/06/18 22:39:34;;;;;;;11.35;3.20;;;;;;;;;;5046198;28;20735;-71
2021/06/18 22:41:59;;;;;;;11.80;3.60;;;;;;;;;;5044191;28;20475;-73
2021/06/18 22:44:25;;;;;;;10.00;3.30;;;;;;;;;;5042584;28;20032;-72
2021/06/18 22:46:50;;;;;;;13.65;3.75;;;;;;;;;;5042883;28;20143;-72
2021/06/18 22:49:16;;;;;;;10.43;3.90;;;;;;;;;;5046445;28;20029;-73
2021/06/18 22:51:41;;;;;;;10.95;5.15;;;;;;;;;;5045446;28;20541;-72
2021/06/18 22:54:07;;;;;;;12.38;4.07;;;;;;;;;;5046140;28;20033;-70
2021/06/18 22:56:32;;;;;;;9.48;4.00;;;;;;;;;;5042707;28;20025;-72
2021/06/18 22:58:58;;;;;;;11.95;3.95;;;;;;;;;;5046329;28;20075;-73
2021/06/18 23:01:23;;;;;;;11.63;3.42;;;;;;;;;;5044083;28;20150;-72
2021/06/18 23:03:48;;;;;;;9.98;3.28;;;;;;;;;;5047266;28;20815;-72
2021/06/18 23:06:15;;;;;;;7.95;2.95;;;;;;;;;;5046089;28;20017;-72
2021/06/18 23:08:40;;;;;;;7.80;2.60;;;;;;;;;;5049461;28;20090;-73
2021/06/18 23:11:07;;;;;;;9.48;3.20;;;;;;;;;;5045066;28;20483;-72
2021/06/18 23:13:32;;;;;;;7.03;2.45;;;;;;;;;;5046252;28;20032;-72
2021/06/18 23:15:57;;;;;;;7.88;2.88;;;;;;;;;;5044514;28;20029;-72
2021/06/18 23:18:24;;;;;;;11.25;3.58;;;;;;;;;;5046654;28;20428;-72
2021/06/18 23:20:50;;;;;;;7.80;2.33;;;;;;;;;;5043247;28;20129;-73
2021/06/18 23:23:16;;;;;;;11.80;3.70;;;;;;;;;;5046021;28;20108;-71
2021/06/18 23:25:43;;;;;;;21.45;4.13;;;;;;;;;;5043506;28;20479;-72
2021/06/18 23:28:09;;;;;;;12.75;3.38;;;;;;;;;;5037073;28;20029;-71
2021/06/18 23:30:35;;;;;;;15.15;3.17;;;;;;;;;;5039846;28;20046;-71
2021/06/18 23:33:02;;;;;;;15.20;3.03;;;;;;;;;;5044324;28;20250;-72
2021/06/18 23:35:30;;;;;;;10.45;3.30;;;;;;;;;;5045539;28;20391;-72
2021/06/18 23:37:56;;;;;;;9.77;2.67;;;;;;;;;;5045827;28;20025;-71
2021/06/18 23:40:22;;;;;;;14.18;2.60;;;;;;;;;;5044229;28;20044;-72
2021/06/18 23:42:52;;;;;;;16.35;3.90;;;;;;;;;;5046237;28;20516;-71
2021/06/18 23:45:18;;;;;;;9.07;2.85;;;;;;;;;;5043762;28;20649;-71
2021/06/18 23:47:43;;;;;;;9.30;2.92;;;;;;;;;;5045439;28;20029;-71
2021/06/18 23:50:12;;;;;;;10.13;3.00;;;;;;;;;;5045257;28;20025;-71
2021/06/18 23:52:37;;;;;;;8.18;3.03;;;;;;;;;;5045533;28;20052;-71
2021/06/18 23:55:03;;;;;;;8.10;2.88;;;;;;;;;;5045117;28;20535;-71
2021/06/18 23:57:28;;;;;;;9.32;3.25;;;;;;;;;;5045378;28;20055;-71
2021/06/18 23:59:53;;;;;;;13.55;3.75;;;;;;;;;;5044622;28;20047;-71
